createdAt,value
2023-02-26T00:00:28.473Z,3.11
2023-02-26T00:01:32.916Z,3.10
2023-02-26T00:02:36.748Z,2.99
2023-02-26T00:03:42.233Z,3.04
2023-02-26T00:04:44.887Z,2.96
2023-02-26T00:05:51.102Z,2.92
2023-02-26T00:06:58.578Z,2.97
2023-02-26T00:08:00.836Z,2.96
2023-02-26T00:09:05.269Z,3.00
2023-02-26T00:10:12.204Z,3.00
2023-02-26T00:11:16.165Z,2.95
2023-02-26T00:12:21.142Z,2.85
2023-02-26T00:13:25.186Z,2.91
2023-02-26T00:14:30.936Z,2.83
2023-02-26T00:15:33.826Z,2.84
2023-02-26T00:16:39.532Z,2.88
2023-02-26T00:17:44.915Z,2.96
2023-02-26T00:18:47.794Z,2.90
2023-02-26T00:19:51.498Z,2.80
2023-02-26T00:20:54.908Z,2.83
2023-02-26T00:21:58.619Z,2.91
2023-02-26T00:23:02.130Z,2.99
2023-02-26T00:24:07.413Z,3.06
2023-02-26T00:25:11.091Z,2.96
2023-02-26T00:26:15.352Z,3.04
2023-02-26T00:27:20.010Z,3.09
2023-02-26T00:28:24.817Z,3.07
2023-02-26T00:29:29.738Z,3.04
2023-02-26T00:30:35.339Z,3.06
2023-02-26T00:31:40.188Z,3.05
2023-02-26T00:32:45.432Z,2.94
2023-02-26T00:33:48.765Z,3.01
2023-02-26T00:34:51.955Z,2.95
2023-02-26T00:35:57.347Z,2.95
2023-02-26T00:37:18.829Z,2.96
2023-02-26T00:38:23.019Z,3.04
2023-02-26T00:39:35.020Z,2.91
2023-02-26T00:40:44.021Z,2.93
2023-02-26T00:41:47.564Z,2.95
2023-02-26T00:42:50.240Z,2.90
2023-02-26T00:43:53.627Z,2.86
2023-02-26T00:44:57.339Z,2.89
2023-02-26T00:46:04.767Z,2.93
2023-02-26T00:47:13.519Z,2.89
2023-02-26T00:48:19.040Z,3.09
2023-02-26T00:49:37.485Z,3.00
2023-02-26T00:50:44.747Z,3.02
2023-02-26T00:51:52.758Z,3.11
2023-02-26T00:53:00.115Z,3.00
2023-02-26T00:54:22.001Z,2.91
2023-02-26T00:55:29.385Z,2.95
2023-02-26T00:56:33.283Z,3.00
2023-02-26T00:57:36.804Z,3.16
2023-02-26T00:58:40.200Z,3.22
2023-02-26T00:59:44.963Z,3.31
2023-02-26T01:00:48.568Z,3.36
2023-02-26T01:01:51.713Z,3.48
2023-02-26T01:02:56.088Z,3.60
2023-02-26T01:04:02.424Z,3.59
2023-02-26T01:05:07.088Z,3.69
2023-02-26T01:06:12.685Z,3.68
2023-02-26T01:07:19.252Z,3.51
2023-02-26T01:08:25.000Z,3.49
2023-02-26T01:09:31.228Z,3.65
2023-02-26T01:10:35.663Z,3.69
2023-02-26T01:11:40.848Z,3.61
2023-02-26T01:12:44.474Z,3.65
2023-02-26T01:13:49.311Z,3.71
2023-02-26T01:14:54.631Z,3.77
2023-02-26T01:15:59.885Z,3.65
2023-02-26T01:17:28.974Z,3.80
2023-02-26T01:18:35.564Z,3.81
2023-02-26T01:19:47.166Z,3.66
2023-02-26T01:20:52.443Z,3.62
2023-02-26T01:21:58.245Z,3.69
2023-02-26T01:23:03.526Z,3.68
2023-02-26T01:24:07.953Z,3.54
2023-02-26T01:25:16.265Z,3.50
2023-02-26T01:26:22.497Z,3.59
2023-02-26T01:27:25.804Z,3.45
2023-02-26T01:28:29.720Z,3.39
2023-02-26T01:29:32.756Z,3.38
2023-02-26T01:30:37.041Z,3.41
2023-02-26T01:31:46.028Z,3.39
2023-02-26T01:32:51.407Z,3.39
2023-02-26T01:33:56.020Z,3.37
2023-02-26T01:35:04.850Z,3.42
2023-02-26T01:36:09.708Z,3.51
2023-02-26T01:37:15.307Z,3.40
2023-02-26T01:38:21.320Z,3.38
2023-02-26T01:39:45.086Z,3.38
2023-02-26T01:40:51.126Z,3.32
2023-02-26T01:42:01.612Z,3.28
2023-02-26T01:43:08.347Z,3.32
2023-02-26T01:44:17.388Z,3.29
2023-02-26T01:45:26.454Z,3.11
2023-02-26T01:46:47.398Z,3.00
2023-02-26T01:47:52.867Z,3.03
2023-02-26T01:48:57.716Z,3.01
2023-02-26T01:50:09.275Z,2.91
2023-02-26T01:51:13.515Z,2.94
2023-02-26T01:52:34.244Z,3.04
2023-02-26T01:53:37.469Z,3.13
2023-02-26T01:54:40.123Z,3.13
2023-02-26T01:55:45.290Z,3.04
2023-02-26T01:56:51.407Z,2.96
2023-02-26T01:57:58.073Z,3.06
2023-02-26T01:59:03.420Z,3.09
2023-02-26T02:00:08.094Z,3.09
2023-02-26T02:01:13.474Z,3.15
2023-02-26T02:02:20.248Z,3.25
2023-02-26T02:03:25.489Z,3.20
2023-02-26T02:04:29.784Z,3.18
2023-02-26T02:05:38.770Z,3.14
2023-02-26T02:06:42.588Z,3.07
2023-02-26T02:07:47.877Z,3.12
2023-02-26T02:08:52.210Z,3.14
2023-02-26T02:09:56.675Z,3.13
2023-02-26T02:11:00.153Z,3.10
2023-02-26T02:12:11.578Z,3.09
2023-02-26T02:13:26.804Z,3.12
2023-02-26T02:14:42.532Z,3.05
2023-02-26T02:15:49.281Z,2.96
2023-02-26T02:16:54.239Z,2.99
2023-02-26T02:18:03.167Z,3.05
2023-02-26T02:19:25.701Z,3.05
2023-02-26T02:20:46.529Z,3.08
2023-02-26T02:22:09.805Z,3.15
2023-02-26T02:24:43.139Z,3.26
2023-02-26T02:25:58.546Z,2.87
2023-02-26T02:27:14.892Z,2.80
2023-02-26T02:28:30.169Z,2.95
2023-02-26T02:29:36.528Z,2.98
2023-02-26T02:31:01.908Z,3.09
2023-02-26T02:32:09.949Z,3.07
2023-02-26T02:33:16.585Z,3.16
2023-02-26T02:34:24.677Z,3.04
2023-02-26T02:35:41.682Z,3.01
2023-02-26T02:36:49.436Z,3.08
2023-02-26T02:38:11.437Z,3.04
2023-02-26T02:39:16.974Z,3.00
2023-02-26T02:40:22.832Z,2.96
2023-02-26T02:41:29.264Z,2.91
2023-02-26T02:42:34.542Z,2.85
2023-02-26T02:43:39.821Z,2.88
2023-02-26T02:44:44.061Z,2.96
2023-02-26T02:45:49.224Z,3.03
2023-02-26T02:46:58.447Z,2.96
2023-02-26T02:48:18.759Z,3.01
2023-02-26T02:49:28.435Z,2.94
2023-02-26T02:50:32.607Z,2.93
2023-02-26T02:51:45.552Z,3.03
2023-02-26T02:52:53.338Z,3.04
2023-02-26T02:54:01.281Z,3.02
2023-02-26T02:55:07.724Z,3.08
2023-02-26T02:56:16.130Z,3.09
2023-02-26T02:57:22.877Z,3.20
2023-02-26T02:58:29.453Z,3.23
2023-02-26T02:59:39.508Z,3.11
2023-02-26T03:00:45.346Z,3.08
2023-02-26T03:01:53.312Z,3.12
2023-02-26T03:03:03.693Z,3.13
2023-02-26T03:04:13.512Z,3.00
2023-02-26T03:05:17.715Z,3.05
2023-02-26T03:06:20.578Z,3.12
2023-02-26T03:07:26.181Z,3.12
2023-02-26T03:08:31.271Z,3.14
2023-02-26T03:09:34.957Z,3.13
2023-02-26T03:10:40.141Z,3.10
2023-02-26T03:11:45.222Z,2.99
2023-02-26T03:12:51.282Z,3.04
2023-02-26T03:13:55.659Z,3.16
2023-02-26T03:15:01.889Z,3.14
2023-02-26T03:16:19.524Z,3.07
2023-02-26T03:17:28.764Z,3.19
2023-02-26T03:18:40.074Z,3.10
2023-02-26T03:20:02.706Z,3.03
2023-02-26T03:21:19.047Z,3.32
2023-02-26T03:22:27.681Z,3.43
2023-02-26T03:23:44.056Z,3.48
2023-02-26T03:24:50.882Z,3.46
2023-02-26T03:26:01.172Z,3.16
2023-02-26T03:27:07.293Z,3.03
2023-02-26T03:28:14.652Z,2.90
2023-02-26T03:29:23.183Z,2.89
2023-02-26T03:30:40.121Z,2.78
2023-02-26T03:31:57.326Z,2.67
2023-02-26T03:33:17.360Z,2.68
2023-02-26T03:34:23.995Z,2.80
2023-02-26T03:35:35.437Z,2.71
2023-02-26T03:36:40.737Z,2.73
2023-02-26T03:37:50.280Z,2.72
2023-02-26T03:38:55.369Z,2.76
2023-02-26T03:40:01.775Z,2.96
2023-02-26T03:41:07.491Z,2.88
2023-02-26T03:42:18.194Z,3.01
2023-02-26T03:43:31.797Z,2.99
2023-02-26T03:44:40.140Z,3.08
2023-02-26T03:45:48.455Z,3.13
2023-02-26T03:46:53.948Z,2.96
2023-02-26T03:47:59.546Z,2.95
2023-02-26T03:49:06.205Z,2.90
2023-02-26T03:50:12.805Z,2.99
2023-02-26T03:51:25.854Z,3.06
2023-02-26T03:52:41.794Z,3.00
2023-02-26T03:54:08.865Z,3.03
2023-02-26T03:55:15.342Z,2.93
2023-02-26T03:56:37.279Z,2.80
2023-02-26T03:57:46.039Z,2.91
2023-02-26T03:58:56.318Z,2.71
2023-02-26T04:00:18.187Z,2.85
2023-02-26T04:01:22.734Z,2.96
2023-02-26T04:02:29.092Z,3.01
2023-02-26T04:03:36.134Z,3.03
2023-02-26T04:04:41.957Z,2.91
2023-02-26T04:05:46.689Z,2.88
2023-02-26T04:06:53.971Z,2.83
2023-02-26T04:07:57.996Z,2.92
2023-02-26T04:09:00.952Z,2.93
2023-02-26T04:10:05.504Z,3.00
2023-02-26T04:11:12.091Z,2.96
2023-02-26T04:12:14.817Z,3.04
2023-02-26T04:13:21.029Z,3.03
2023-02-26T04:14:27.888Z,2.92
2023-02-26T04:15:32.635Z,2.91
2023-02-26T04:16:38.984Z,2.98
2023-02-26T04:17:42.266Z,3.02
2023-02-26T04:18:45.803Z,3.01
2023-02-26T04:19:50.549Z,3.05
2023-02-26T04:20:54.977Z,2.95
2023-02-26T04:21:57.538Z,3.02
2023-02-26T04:23:01.456Z,3.06
2023-02-26T04:24:05.300Z,3.09
2023-02-26T04:25:08.799Z,2.99
2023-02-26T04:26:15.244Z,2.85
2023-02-26T04:27:18.743Z,2.84
2023-02-26T04:28:22.531Z,2.88
2023-02-26T04:29:26.385Z,2.82
2023-02-26T04:30:31.329Z,2.78
2023-02-26T04:31:35.485Z,2.75
2023-02-26T04:32:39.931Z,2.78
2023-02-26T04:33:43.644Z,2.77
2023-02-26T04:34:47.388Z,2.68
2023-02-26T04:35:52.940Z,2.72
2023-02-26T04:36:56.634Z,2.78
2023-02-26T04:38:00.070Z,2.86
2023-02-26T04:39:05.527Z,2.79
2023-02-26T04:40:10.075Z,2.80
2023-02-26T04:41:13.809Z,2.99
2023-02-26T04:42:19.912Z,3.08
2023-02-26T04:43:25.421Z,3.02
2023-02-26T04:44:34.658Z,2.94
2023-02-26T04:45:37.196Z,2.99
2023-02-26T04:46:44.052Z,2.92
2023-02-26T04:47:48.944Z,2.85
2023-02-26T04:48:52.839Z,2.92
2023-02-26T04:49:56.437Z,2.97
2023-02-26T04:51:00.069Z,2.90
2023-02-26T04:52:03.813Z,2.79
2023-02-26T04:53:07.175Z,2.71
2023-02-26T04:54:10.667Z,2.76
2023-02-26T04:55:13.588Z,2.81
2023-02-26T04:56:16.966Z,2.71
2023-02-26T04:57:24.238Z,2.77
2023-02-26T04:58:28.249Z,2.74
2023-02-26T04:59:33.727Z,2.68
2023-02-26T05:00:36.427Z,2.76
2023-02-26T05:01:40.033Z,2.62
2023-02-26T05:02:45.449Z,2.68
2023-02-26T05:03:50.641Z,2.76
2023-02-26T05:04:57.925Z,2.75
2023-02-26T05:06:02.497Z,2.85
2023-02-26T05:07:09.136Z,2.79
2023-02-26T05:08:12.648Z,2.78
2023-02-26T05:09:15.968Z,2.89
2023-02-26T05:10:21.113Z,2.95
2023-02-26T05:11:24.503Z,2.91
2023-02-26T05:12:27.395Z,2.94
2023-02-26T05:13:31.002Z,2.96
2023-02-26T05:14:34.507Z,3.03
2023-02-26T05:15:37.692Z,2.99
2023-02-26T05:16:40.473Z,2.92
2023-02-26T05:17:44.392Z,2.96
2023-02-26T05:18:49.157Z,3.01
2023-02-26T05:19:54.021Z,3.04
2023-02-26T05:20:57.615Z,2.93
2023-02-26T05:22:04.265Z,2.89
2023-02-26T05:23:07.661Z,2.92
2023-02-26T05:24:11.068Z,3.04
2023-02-26T05:25:14.800Z,3.09
2023-02-26T05:26:19.468Z,3.09
2023-02-26T05:27:24.390Z,3.08
2023-02-26T05:28:28.073Z,3.09
2023-02-26T05:29:31.756Z,3.06
2023-02-26T05:30:35.518Z,3.06
2023-02-26T05:31:38.462Z,3.09
2023-02-26T05:32:43.838Z,3.09
2023-02-26T05:33:47.824Z,3.04
2023-02-26T05:34:51.047Z,2.94
2023-02-26T05:35:54.625Z,2.92
2023-02-26T05:36:58.041Z,2.96
2023-02-26T05:38:05.196Z,3.03
2023-02-26T05:39:09.850Z,3.07
2023-02-26T05:40:17.880Z,3.20
2023-02-26T05:41:21.253Z,3.15
2023-02-26T05:42:25.596Z,3.24
2023-02-26T05:43:29.710Z,3.37
2023-02-26T05:44:34.454Z,3.24
2023-02-26T05:45:38.402Z,2.99
2023-02-26T05:46:43.092Z,3.09
2023-02-26T05:47:46.307Z,3.07
2023-02-26T05:48:50.327Z,3.11
2023-02-26T05:49:54.402Z,3.08
2023-02-26T05:50:58.892Z,3.03
2023-02-26T05:52:02.448Z,3.05
2023-02-26T05:53:05.964Z,3.13
2023-02-26T05:54:09.993Z,3.24
2023-02-26T05:55:12.666Z,3.42
2023-02-26T05:56:17.836Z,3.71
2023-02-26T05:57:22.691Z,3.70
2023-02-26T05:58:26.655Z,3.86
2023-02-26T05:59:30.139Z,3.83
2023-02-26T06:00:32.493Z,3.91
2023-02-26T06:01:38.051Z,3.82
2023-02-26T06:02:42.261Z,3.65
2023-02-26T06:03:46.578Z,3.62
2023-02-26T06:04:49.831Z,3.35
2023-02-26T06:05:52.999Z,3.45
2023-02-26T06:06:56.120Z,3.69
2023-02-26T06:07:59.625Z,3.81
2023-02-26T06:09:05.241Z,3.89
2023-02-26T06:10:09.337Z,3.98
2023-02-26T06:11:13.395Z,4.00
2023-02-26T06:12:18.503Z,4.06
2023-02-26T06:13:21.852Z,4.10
2023-02-26T06:14:26.908Z,4.15
2023-02-26T06:15:30.832Z,4.17
2023-02-26T06:16:35.243Z,4.18
2023-02-26T06:17:40.851Z,4.18
2023-02-26T06:18:46.161Z,4.05
2023-02-26T06:19:48.511Z,3.94
2023-02-26T06:20:52.337Z,3.84
2023-02-26T06:21:55.946Z,3.87
2023-02-26T06:22:59.351Z,3.89
2023-02-26T06:24:02.895Z,3.95
2023-02-26T06:25:06.627Z,3.78
2023-02-26T06:26:10.378Z,3.82
2023-02-26T06:27:13.993Z,3.82
2023-02-26T06:28:17.109Z,3.65
2023-02-26T06:29:21.154Z,3.80
2023-02-26T06:30:24.638Z,3.94
2023-02-26T06:31:29.216Z,3.99
2023-02-26T06:32:32.606Z,3.86
2023-02-26T06:33:36.074Z,3.77
2023-02-26T06:34:39.451Z,3.87
2023-02-26T06:35:44.215Z,3.84
2023-02-26T06:36:48.560Z,3.92
2023-02-26T06:37:52.182Z,3.95
2023-02-26T06:38:56.304Z,4.00
2023-02-26T06:39:58.773Z,3.91
2023-02-26T06:41:02.278Z,3.93
2023-02-26T06:42:07.674Z,4.02
2023-02-26T06:43:11.871Z,4.00
2023-02-26T06:44:15.217Z,4.05
2023-02-26T06:45:17.769Z,4.01
2023-02-26T06:46:22.009Z,3.96
2023-02-26T06:47:24.663Z,3.96
2023-02-26T06:48:29.335Z,4.15
2023-02-26T06:49:33.871Z,4.18
2023-02-26T06:50:38.910Z,4.35
2023-02-26T06:51:45.706Z,4.40
2023-02-26T06:52:49.307Z,4.37
2023-02-26T06:53:52.545Z,4.34
2023-02-26T06:54:55.982Z,4.24
2023-02-26T06:55:58.367Z,4.54
2023-02-26T06:57:02.802Z,4.62
2023-02-26T06:58:07.123Z,4.49
2023-02-26T06:59:10.748Z,4.46
2023-02-26T07:00:15.019Z,4.54
2023-02-26T07:01:18.505Z,4.39
2023-02-26T07:02:22.749Z,4.24
2023-02-26T07:03:26.556Z,4.34
2023-02-26T07:04:30.359Z,4.45
2023-02-26T07:05:32.597Z,4.54
2023-02-26T07:06:38.142Z,4.73
2023-02-26T07:07:43.587Z,4.77
2023-02-26T07:08:45.980Z,4.79
2023-02-26T07:09:48.925Z,4.69
2023-02-26T07:10:52.638Z,4.76
2023-02-26T07:11:56.143Z,4.82
2023-02-26T07:12:58.593Z,4.69
2023-02-26T07:14:01.895Z,4.79
2023-02-26T07:15:06.145Z,4.95
2023-02-26T07:16:08.905Z,5.07
2023-02-26T07:17:15.303Z,5.07
2023-02-26T07:18:19.916Z,5.16
2023-02-26T07:19:23.306Z,5.04
2023-02-26T07:20:26.309Z,5.21
2023-02-26T07:21:28.618Z,5.23
2023-02-26T07:22:31.808Z,5.31
2023-02-26T07:23:34.494Z,5.26
2023-02-26T07:24:38.714Z,5.30
2023-02-26T07:25:42.224Z,5.32
2023-02-26T07:26:48.797Z,5.25
2023-02-26T07:27:51.422Z,5.63
2023-02-26T07:28:54.206Z,5.73
2023-02-26T07:29:57.418Z,5.71
2023-02-26T07:31:01.474Z,5.86
2023-02-26T07:32:06.727Z,6.06
2023-02-26T07:33:13.796Z,6.06
2023-02-26T07:34:17.050Z,6.15
2023-02-26T07:35:20.763Z,6.08
2023-02-26T07:36:24.614Z,6.30
2023-02-26T07:37:28.512Z,6.39
2023-02-26T07:38:31.654Z,6.28
2023-02-26T07:39:37.715Z,6.37
2023-02-26T07:40:41.219Z,6.20
2023-02-26T07:41:43.668Z,6.08
2023-02-26T07:42:48.950Z,6.03
2023-02-26T07:43:51.525Z,6.20
2023-02-26T07:44:54.928Z,6.12
2023-02-26T07:45:58.628Z,6.22
2023-02-26T07:47:03.730Z,6.42
2023-02-26T07:48:06.996Z,6.40
2023-02-26T07:49:12.495Z,6.48
2023-02-26T07:50:19.274Z,6.35
2023-02-26T07:51:23.455Z,6.18
2023-02-26T07:52:30.690Z,6.09
2023-02-26T07:53:34.341Z,6.13
2023-02-26T07:54:37.610Z,6.04
2023-02-26T07:55:41.359Z,6.00
2023-02-26T07:56:44.453Z,6.03
2023-02-26T07:57:46.999Z,6.09
2023-02-26T07:58:50.724Z,6.20
2023-02-26T07:59:54.008Z,6.10
2023-02-26T08:00:57.828Z,6.29
2023-02-26T08:02:02.066Z,6.39
2023-02-26T08:03:06.433Z,6.51
2023-02-26T08:04:09.934Z,6.22
2023-02-26T08:05:13.323Z,6.26
2023-02-26T08:06:17.033Z,6.06
2023-02-26T08:07:20.768Z,6.17
2023-02-26T08:08:24.677Z,6.27
2023-02-26T08:09:27.957Z,6.39
2023-02-26T08:10:31.708Z,6.55
2023-02-26T08:11:50.024Z,6.55
2023-02-26T08:12:51.011Z,6.47
2023-02-26T08:13:55.913Z,6.54
2023-02-26T08:14:58.539Z,6.32
2023-02-26T08:16:00.838Z,6.38
2023-02-26T08:17:04.929Z,6.39
2023-02-26T08:18:07.174Z,6.42
2023-02-26T08:19:11.863Z,6.34
2023-02-26T08:20:16.372Z,6.76
2023-02-26T08:21:20.959Z,7.04
2023-02-26T08:22:24.967Z,6.90
2023-02-26T08:23:27.515Z,6.94
2023-02-26T08:24:29.776Z,6.95
2023-02-26T08:25:33.284Z,7.06
2023-02-26T08:26:38.390Z,7.10
2023-02-26T08:27:44.128Z,7.11
2023-02-26T08:28:47.553Z,7.20
2023-02-26T08:29:51.066Z,7.24
2023-02-26T08:30:55.119Z,6.82
2023-02-26T08:31:57.714Z,6.95
2023-02-26T08:33:02.308Z,7.20
2023-02-26T08:34:05.520Z,7.29
2023-02-26T08:35:08.798Z,7.49
2023-02-26T08:36:12.506Z,7.69
2023-02-26T08:37:15.844Z,7.68
2023-02-26T08:38:19.729Z,7.58
2023-02-26T08:39:24.830Z,7.62
2023-02-26T08:40:31.670Z,7.66
2023-02-26T08:41:37.800Z,7.90
2023-02-26T08:42:42.724Z,7.85
2023-02-26T08:43:45.841Z,7.92
2023-02-26T08:44:50.575Z,7.81
2023-02-26T08:45:54.814Z,8.13
2023-02-26T08:46:57.289Z,8.33
2023-02-26T08:48:00.560Z,8.54
2023-02-26T08:49:04.074Z,8.41
2023-02-26T08:50:07.871Z,8.57
2023-02-26T08:51:10.971Z,8.57
2023-02-26T08:52:13.223Z,8.65
2023-02-26T08:53:17.688Z,8.22
2023-02-26T08:54:20.873Z,8.32
2023-02-26T08:55:24.161Z,8.40
2023-02-26T08:56:27.809Z,8.66
2023-02-26T08:57:31.485Z,8.69
2023-02-26T08:58:34.159Z,8.16
2023-02-26T08:59:39.438Z,8.26
2023-02-26T09:00:42.951Z,8.61
2023-02-26T09:01:48.370Z,8.76
2023-02-26T09:02:51.672Z,8.45
2023-02-26T09:03:55.296Z,8.30
2023-02-26T09:04:58.634Z,8.27
2023-02-26T09:06:01.960Z,8.28
2023-02-26T09:07:06.428Z,8.01
2023-02-26T09:08:10.019Z,7.70
2023-02-26T09:09:13.710Z,7.84
2023-02-26T09:10:17.985Z,7.95
2023-02-26T09:11:21.336Z,8.04
2023-02-26T09:12:24.947Z,8.01
2023-02-26T09:13:28.561Z,8.03
2023-02-26T09:14:31.903Z,8.10
2023-02-26T09:15:34.522Z,8.39
2023-02-26T09:16:40.690Z,8.41
2023-02-26T09:17:44.768Z,8.48
2023-02-26T09:18:48.156Z,8.69
2023-02-26T09:19:51.465Z,8.64
2023-02-26T09:20:53.917Z,8.70
2023-02-26T09:21:57.072Z,8.58
2023-02-26T09:23:00.524Z,8.52
2023-02-26T09:24:03.615Z,8.47
2023-02-26T09:25:07.744Z,8.25
2023-02-26T09:26:10.318Z,8.55
2023-02-26T09:27:13.797Z,8.35
2023-02-26T09:28:17.696Z,8.37
2023-02-26T09:29:21.138Z,8.16
2023-02-26T09:30:24.947Z,8.16
2023-02-26T09:31:28.109Z,8.41
2023-02-26T09:32:30.793Z,8.25
2023-02-26T09:33:34.841Z,8.01
2023-02-26T09:34:38.149Z,8.00
2023-02-26T09:35:41.503Z,8.10
2023-02-26T09:36:47.141Z,7.84
2023-02-26T09:37:52.936Z,8.03
2023-02-26T09:38:56.171Z,8.04
2023-02-26T09:39:58.592Z,8.36
2023-02-26T09:41:03.862Z,8.43
2023-02-26T09:42:19.904Z,8.50
2023-02-26T09:43:25.051Z,8.53
2023-02-26T09:44:30.117Z,8.28
2023-02-26T09:45:36.608Z,8.24
2023-02-26T09:46:41.639Z,8.12
2023-02-26T09:47:46.193Z,8.15
2023-02-26T09:48:50.533Z,8.28
2023-02-26T09:49:55.709Z,8.44
2023-02-26T09:51:00.698Z,8.38
2023-02-26T09:52:27.169Z,8.52
2023-02-26T09:53:32.555Z,8.49
2023-02-26T09:54:38.925Z,8.82
2023-02-26T09:55:44.670Z,8.68
2023-02-26T09:56:48.847Z,8.48
2023-02-26T09:57:55.027Z,8.58
2023-02-26T09:59:02.577Z,8.43
2023-02-26T10:00:11.655Z,8.69
2023-02-26T10:01:17.970Z,8.62
2023-02-26T10:02:29.110Z,8.41
2023-02-26T10:03:50.193Z,8.43
2023-02-26T10:04:55.551Z,8.75
2023-02-26T10:06:16.598Z,9.09
2023-02-26T10:07:23.824Z,9.06
2023-02-26T10:08:32.779Z,9.21
2023-02-26T10:09:49.712Z,9.01
2023-02-26T10:10:58.497Z,9.01
2023-02-26T10:12:03.906Z,9.23
2023-02-26T10:13:10.943Z,9.00
2023-02-26T10:14:28.381Z,8.93
2023-02-26T10:15:38.228Z,8.92
2023-02-26T10:16:46.762Z,8.98
2023-02-26T10:17:55.480Z,9.02
2023-02-26T10:19:07.749Z,8.79
2023-02-26T10:20:17.760Z,8.85
2023-02-26T10:21:22.751Z,8.91
2023-02-26T10:22:31.735Z,8.96
2023-02-26T10:23:49.286Z,8.69
2023-02-26T10:24:54.822Z,9.02
2023-02-26T10:26:08.503Z,9.37
2023-02-26T10:27:19.703Z,9.48
2023-02-26T10:28:30.425Z,9.68
2023-02-26T10:29:35.798Z,9.95
2023-02-26T10:30:48.963Z,10.10
2023-02-26T10:32:01.168Z,10.29
2023-02-26T10:33:14.616Z,10.13
2023-02-26T10:34:21.039Z,10.27
2023-02-26T10:35:26.840Z,10.34
2023-02-26T10:36:31.975Z,10.08
2023-02-26T10:37:48.272Z,9.86
2023-02-26T10:38:56.274Z,9.96
2023-02-26T10:40:14.070Z,10.01
2023-02-26T10:41:20.224Z,9.80
2023-02-26T10:42:24.681Z,9.49
2023-02-26T10:43:31.182Z,9.68
2023-02-26T10:44:46.589Z,9.94
2023-02-26T10:46:08.726Z,9.73
2023-02-26T10:47:20.651Z,9.99
2023-02-26T10:48:43.676Z,10.04
2023-02-26T10:49:53.357Z,10.29
2023-02-26T10:50:58.552Z,10.20
2023-02-26T10:52:03.486Z,9.09
2023-02-26T10:53:08.904Z,8.94
2023-02-26T10:54:14.945Z,9.24
2023-02-26T10:55:28.230Z,9.32
2023-02-26T10:56:32.144Z,9.37
2023-02-26T10:57:38.091Z,9.34
2023-02-26T10:58:43.021Z,9.56
2023-02-26T10:59:47.398Z,9.48
2023-02-26T11:00:54.720Z,9.58
2023-02-26T11:02:00.416Z,9.66
2023-02-26T11:03:04.479Z,9.50
2023-02-26T11:04:09.513Z,9.49
2023-02-26T11:05:17.992Z,9.46
2023-02-26T11:06:24.992Z,9.29
2023-02-26T11:07:32.448Z,9.52
2023-02-26T11:08:37.600Z,9.83
2023-02-26T11:09:43.893Z,9.96
2023-02-26T11:10:50.514Z,9.68
2023-02-26T11:11:55.374Z,9.71
2023-02-26T11:14:05.097Z,9.81
2023-02-26T11:15:12.484Z,9.90
2023-02-26T11:16:15.856Z,9.85
2023-02-26T11:17:22.281Z,9.58
2023-02-26T11:18:27.464Z,9.77
2023-02-26T11:19:42.568Z,9.56
2023-02-26T11:20:47.257Z,9.20
2023-02-26T11:21:51.129Z,9.42
2023-02-26T11:22:58.533Z,9.28
2023-02-26T11:24:08.827Z,9.13
2023-02-26T11:25:14.856Z,9.38
2023-02-26T11:26:20.644Z,9.33
2023-02-26T11:27:33.942Z,9.55
2023-02-26T11:28:39.795Z,9.73
2023-02-26T11:29:45.223Z,9.67
2023-02-26T11:30:54.361Z,9.86
2023-02-26T11:32:00.557Z,9.99
2023-02-26T11:33:20.302Z,10.07
2023-02-26T11:34:25.047Z,10.14
2023-02-26T11:35:28.883Z,9.98
2023-02-26T11:36:33.336Z,9.82
2023-02-26T11:37:38.603Z,9.58
2023-02-26T11:38:42.736Z,9.86
2023-02-26T11:39:46.454Z,10.20
2023-02-26T11:40:53.726Z,10.23
2023-02-26T11:42:00.137Z,10.17
2023-02-26T11:43:08.234Z,10.17
2023-02-26T11:44:17.526Z,10.34
2023-02-26T11:45:21.625Z,10.23
2023-02-26T11:46:26.437Z,10.39
2023-02-26T11:47:32.577Z,10.25
2023-02-26T11:48:43.942Z,10.56
2023-02-26T11:49:55.185Z,10.62
2023-02-26T11:50:59.732Z,10.58
2023-02-26T11:52:08.890Z,10.55
2023-02-26T11:53:20.554Z,10.23
2023-02-26T11:54:24.956Z,9.76
2023-02-26T11:55:29.917Z,9.61
2023-02-26T11:56:38.545Z,9.61
2023-02-26T11:57:42.481Z,9.87
2023-02-26T11:58:48.805Z,10.11
2023-02-26T11:59:54.605Z,10.14
2023-02-26T12:01:03.019Z,9.99
2023-02-26T12:02:13.528Z,9.56
2023-02-26T12:03:18.619Z,9.52
2023-02-26T12:04:24.524Z,9.49
2023-02-26T12:05:31.703Z,9.43
2023-02-26T12:06:34.992Z,9.38
2023-02-26T12:07:39.195Z,9.52
2023-02-26T12:08:41.956Z,9.58
2023-02-26T12:09:46.516Z,9.31
2023-02-26T12:10:51.381Z,9.14
2023-02-26T12:12:07.955Z,9.38
2023-02-26T12:13:13.327Z,9.37
2023-02-26T12:14:35.108Z,9.35
2023-02-26T12:15:41.244Z,9.66
2023-02-26T12:16:50.473Z,9.76
2023-02-26T12:17:55.574Z,9.78
2023-02-26T12:19:01.043Z,9.90
2023-02-26T12:20:09.763Z,10.00
2023-02-26T12:21:24.051Z,9.99
2023-02-26T12:22:33.066Z,9.67
2023-02-26T12:23:39.339Z,9.51
2023-02-26T12:24:49.615Z,9.66
2023-02-26T12:25:54.757Z,9.64
2023-02-26T12:27:02.641Z,9.66
2023-02-26T12:28:26.616Z,9.50
2023-02-26T12:29:31.385Z,9.73
2023-02-26T12:30:38.214Z,10.04
2023-02-26T12:31:54.002Z,10.09
2023-02-26T12:32:59.558Z,10.11
2023-02-26T12:34:05.670Z,9.73
2023-02-26T12:35:15.471Z,9.70
2023-02-26T12:36:22.423Z,9.66
2023-02-26T12:37:43.343Z,9.45
2023-02-26T12:38:54.579Z,9.65
2023-02-26T12:40:00.580Z,9.56
2023-02-26T12:41:22.271Z,9.62
2023-02-26T12:42:27.549Z,9.86
2023-02-26T12:43:36.348Z,9.70
2023-02-26T12:44:50.334Z,9.62
2023-02-26T12:46:03.446Z,9.57
2023-02-26T12:47:26.613Z,9.37
2023-02-26T12:48:38.344Z,9.51
2023-02-26T12:49:49.253Z,9.16
2023-02-26T12:50:53.802Z,9.28
2023-02-26T12:52:07.933Z,9.31
2023-02-26T12:53:22.445Z,9.53
2023-02-26T12:54:44.220Z,9.88
2023-02-26T12:55:50.318Z,9.93
2023-02-26T12:57:11.920Z,10.03
2023-02-26T12:58:31.673Z,9.98
2023-02-26T12:59:36.791Z,10.03
2023-02-26T13:00:55.962Z,9.98
2023-02-26T13:02:18.418Z,10.02
2023-02-26T13:03:33.102Z,9.70
2023-02-26T13:04:54.653Z,9.34
2023-02-26T13:06:15.984Z,9.15
2023-02-26T13:07:33.394Z,9.46
2023-02-26T13:08:41.168Z,9.22
2023-02-26T13:09:52.102Z,9.43
2023-02-26T13:11:08.245Z,9.35
2023-02-26T13:12:22.506Z,9.25
2023-02-26T13:13:31.136Z,9.28
2023-02-26T13:14:45.004Z,9.28
2023-02-26T13:16:03.241Z,9.29
2023-02-26T13:17:11.726Z,9.32
2023-02-26T13:18:35.901Z,9.23
2023-02-26T13:19:50.804Z,8.88
2023-02-26T13:21:01.210Z,9.04
2023-02-26T13:22:09.510Z,9.02
2023-02-26T13:23:14.686Z,8.96
2023-02-26T13:24:34.377Z,9.12
2023-02-26T13:25:39.778Z,9.18
2023-02-26T13:26:43.690Z,9.28
2023-02-26T13:27:48.450Z,9.24
2023-02-26T13:28:59.822Z,9.34
2023-02-26T13:30:22.827Z,9.45
2023-02-26T13:31:31.557Z,9.32
2023-02-26T13:32:35.869Z,9.13
2023-02-26T13:33:40.680Z,9.22
2023-02-26T13:34:48.112Z,9.13
2023-02-26T13:35:53.153Z,8.80
2023-02-26T13:36:57.552Z,8.71
2023-02-26T13:38:03.300Z,8.73
2023-02-26T13:39:10.916Z,8.68
2023-02-26T13:40:20.270Z,8.85
2023-02-26T13:41:25.703Z,8.87
2023-02-26T13:42:37.515Z,8.99
2023-02-26T13:43:43.445Z,8.93
2023-02-26T13:44:51.837Z,8.70
2023-02-26T13:46:04.373Z,8.46
2023-02-26T13:47:11.171Z,8.44
2023-02-26T13:48:15.872Z,8.62
2023-02-26T13:49:22.566Z,8.75
2023-02-26T13:50:30.566Z,8.91
2023-02-26T13:51:36.718Z,9.12
2023-02-26T13:52:43.049Z,9.07
2023-02-26T13:53:51.211Z,8.89
2023-02-26T13:54:56.105Z,8.86
2023-02-26T13:56:00.414Z,8.85
2023-02-26T13:57:22.305Z,8.70
2023-02-26T13:58:33.197Z,8.70
2023-02-26T13:59:44.466Z,8.88
2023-02-26T14:00:52.050Z,8.61
2023-02-26T14:01:57.133Z,8.63
2023-02-26T14:03:20.567Z,8.60
2023-02-26T14:04:29.582Z,8.51
2023-02-26T14:05:38.121Z,8.73
2023-02-26T14:06:43.268Z,8.92
2023-02-26T14:08:01.198Z,8.64
2023-02-26T14:09:07.259Z,8.25
2023-02-26T14:10:18.672Z,8.09
2023-02-26T14:11:27.832Z,7.92
2023-02-26T14:12:40.756Z,7.81
2023-02-26T14:13:46.133Z,7.83
2023-02-26T14:15:03.293Z,7.77
2023-02-26T14:16:13.319Z,7.57
2023-02-26T14:17:21.201Z,7.69
2023-02-26T14:18:32.594Z,7.76
2023-02-26T14:19:40.566Z,7.72
2023-02-26T14:20:45.146Z,7.64
2023-02-26T14:21:52.545Z,7.73
2023-02-26T14:22:59.884Z,7.61
2023-02-26T14:24:15.082Z,7.63
2023-02-26T14:25:20.378Z,7.67
2023-02-26T14:26:24.600Z,7.48
2023-02-26T14:27:35.211Z,7.40
2023-02-26T14:28:43.630Z,7.41
2023-02-26T14:29:58.619Z,7.40
2023-02-26T14:31:20.511Z,7.39
2023-02-26T14:32:28.241Z,7.28
2023-02-26T14:33:36.285Z,7.31
2023-02-26T14:34:41.982Z,7.35
2023-02-26T14:35:49.157Z,7.29
2023-02-26T14:36:55.258Z,7.20
2023-02-26T14:38:01.600Z,7.25
2023-02-26T14:39:07.927Z,7.35
2023-02-26T14:40:17.787Z,7.29
2023-02-26T14:41:29.817Z,7.17
2023-02-26T14:42:37.025Z,7.15
2023-02-26T14:43:41.167Z,7.06
2023-02-26T14:44:46.463Z,7.09
2023-02-26T14:45:50.528Z,7.12
2023-02-26T14:46:54.288Z,7.08
2023-02-26T14:47:58.944Z,6.98
2023-02-26T14:49:01.516Z,6.89
2023-02-26T14:50:06.856Z,6.87
2023-02-26T14:51:20.919Z,6.86